sensor_id;sensor_type;location;lat;lon;timestamp;P1;durP1;ratioP1;P2;durP2;ratioP2
23682;SDS011;24897;53.514;10.482;2022-09-09T00:00:25;239.93;;;102.37;;
23682;SDS011;24897;53.514;10.482;2022-09-09T00:06:03;203.40;;;98.87;;
23682;SDS011;24897;53.514;10.482;2022-09-09T00:20:40;132.93;;;95.23;;
23682;SDS011;24897;53.514;10.482;2022-09-09T00:23:51;185.43;;;102.07;;
23682;SDS011;24897;53.514;10.482;2022-09-09T00:29:30;156.47;;;101.30;;
23682;SDS011;24897;53.514;10.482;2022-09-09T00:32:27;224.23;;;110.47;;
23682;SDS011;24897;53.514;10.482;2022-09-09T00:35:16;170.73;;;107.77;;
23682;SDS011;24897;53.514;10.482;2022-09-09T00:38:15;249.63;;;117.87;;
23682;SDS011;24897;53.514;10.482;2022-09-09T00:57:00;178.00;;;118.90;;
23682;SDS011;24897;53.514;10.482;2022-09-09T01:03:07;156.23;;;118.30;;
23682;SDS011;24897;53.514;10.482;2022-09-09T01:06:00;255.83;;;129.70;;
23682;SDS011;24897;53.514;10.482;2022-09-09T01:14:56;179.50;;;119.50;;
23682;SDS011;24897;53.514;10.482;2022-09-09T01:18:06;151.13;;;112.63;;
23682;SDS011;24897;53.514;10.482;2022-09-09T01:21:03;135.20;;;110.07;;
23682;SDS011;24897;53.514;10.482;2022-09-09T01:26:59;146.00;;;111.13;;
23682;SDS011;24897;53.514;10.482;2022-09-09T01:29:46;132.50;;;109.70;;
23682;SDS011;24897;53.514;10.482;2022-09-09T01:32:44;132.70;;;104.50;;
23682;SDS011;24897;53.514;10.482;2022-09-09T01:35:37;124.20;;;102.77;;
23682;SDS011;24897;53.514;10.482;2022-09-09T01:38:30;155.60;;;106.47;;
23682;SDS011;24897;53.514;10.482;2022-09-09T01:41:16;115.67;;;98.27;;
23682;SDS011;24897;53.514;10.482;2022-09-09T01:44:00;117.93;;;99.07;;
23682;SDS011;24897;53.514;10.482;2022-09-09T01:46:45;142.77;;;103.63;;
23682;SDS011;24897;53.514;10.482;2022-09-09T01:49:30;154.17;;;105.43;;
23682;SDS011;24897;53.514;10.482;2022-09-09T01:52:16;114.00;;;98.07;;
23682;SDS011;24897;53.514;10.482;2022-09-09T01:55:00;181.33;;;113.43;;
23682;SDS011;24897;53.514;10.482;2022-09-09T01:58:19;112.80;;;100.53;;
23682;SDS011;24897;53.514;10.482;2022-09-09T02:10:29;157.90;;;116.03;;
23682;SDS011;24897;53.514;10.482;2022-09-09T02:13:36;122.03;;;108.73;;
23682;SDS011;24897;53.514;10.482;2022-09-09T02:16:33;126.27;;;112.77;;
23682;SDS011;24897;53.514;10.482;2022-09-09T02:19:29;126.67;;;112.97;;
23682;SDS011;24897;53.514;10.482;2022-09-09T02:22:19;141.97;;;117.00;;
23682;SDS011;24897;53.514;10.482;2022-09-09T02:25:08;161.63;;;122.80;;
23682;SDS011;24897;53.514;10.482;2022-09-09T02:27:56;210.70;;;130.17;;
23682;SDS011;24897;53.514;10.482;2022-09-09T02:30:42;130.40;;;116.77;;
23682;SDS011;24897;53.514;10.482;2022-09-09T02:33:32;127.80;;;114.30;;
23682;SDS011;24897;53.514;10.482;2022-09-09T02:36:20;143.83;;;124.33;;
23682;SDS011;24897;53.514;10.482;2022-09-09T02:39:09;137.30;;;122.43;;
23682;SDS011;24897;53.514;10.482;2022-09-09T02:41:54;131.97;;;117.87;;
23682;SDS011;24897;53.514;10.482;2022-09-09T02:44:38;128.80;;;115.00;;
23682;SDS011;24897;53.514;10.482;2022-09-09T02:53:19;141.07;;;117.97;;
23682;SDS011;24897;53.514;10.482;2022-09-09T02:56:15;222.43;;;134.70;;
23682;SDS011;24897;53.514;10.482;2022-09-09T02:59:03;212.17;;;132.03;;
23682;SDS011;24897;53.514;10.482;2022-09-09T03:01:48;196.30;;;128.40;;
23682;SDS011;24897;53.514;10.482;2022-09-09T03:04:32;149.17;;;123.97;;
23682;SDS011;24897;53.514;10.482;2022-09-09T03:07:16;199.30;;;132.57;;
23682;SDS011;24897;53.514;10.482;2022-09-09T03:10:02;134.83;;;117.93;;
23682;SDS011;24897;53.514;10.482;2022-09-09T03:12:46;182.87;;;131.30;;
23682;SDS011;24897;53.514;10.482;2022-09-09T03:15:30;151.03;;;123.40;;
23682;SDS011;24897;53.514;10.482;2022-09-09T03:18:15;132.10;;;117.83;;
23682;SDS011;24897;53.514;10.482;2022-09-09T03:21:00;216.67;;;132.03;;
23682;SDS011;24897;53.514;10.482;2022-09-09T03:23:44;132.83;;;114.43;;
23682;SDS011;24897;53.514;10.482;2022-09-09T03:26:29;136.93;;;120.83;;
23682;SDS011;24897;53.514;10.482;2022-09-09T03:29:14;141.40;;;120.83;;
23682;SDS011;24897;53.514;10.482;2022-09-09T03:31:59;161.27;;;123.90;;
23682;SDS011;24897;53.514;10.482;2022-09-09T03:34:43;159.53;;;125.87;;
23682;SDS011;24897;53.514;10.482;2022-09-09T03:37:28;135.23;;;120.97;;
23682;SDS011;24897;53.514;10.482;2022-09-09T03:40:12;132.07;;;118.47;;
23682;SDS011;24897;53.514;10.482;2022-09-09T03:42:57;131.87;;;117.83;;
23682;SDS011;24897;53.514;10.482;2022-09-09T03:45:44;131.60;;;117.70;;
23682;SDS011;24897;53.514;10.482;2022-09-09T03:48:30;131.33;;;117.40;;
23682;SDS011;24897;53.514;10.482;2022-09-09T03:51:14;136.07;;;121.57;;
23682;SDS011;24897;53.514;10.482;2022-09-09T03:53:59;165.60;;;127.37;;
23682;SDS011;24897;53.514;10.482;2022-09-09T03:56:44;149.83;;;123.20;;
23682;SDS011;24897;53.514;10.482;2022-09-09T03:59:29;134.53;;;120.53;;
23682;SDS011;24897;53.514;10.482;2022-09-09T04:02:13;148.97;;;121.57;;
23682;SDS011;24897;53.514;10.482;2022-09-09T04:04:58;131.30;;;117.43;;
23682;SDS011;24897;53.514;10.482;2022-09-09T04:07:43;134.03;;;119.90;;
23682;SDS011;24897;53.514;10.482;2022-09-09T04:10:27;138.17;;;122.27;;
23682;SDS011;24897;53.514;10.482;2022-09-09T04:13:13;134.00;;;120.13;;
23682;SDS011;24897;53.514;10.482;2022-09-09T04:16:00;137.43;;;123.27;;
23682;SDS011;24897;53.514;10.482;2022-09-09T04:18:45;150.50;;;130.00;;
23682;SDS011;24897;53.514;10.482;2022-09-09T04:21:30;133.67;;;119.87;;
23682;SDS011;24897;53.514;10.482;2022-09-09T04:24:15;153.80;;;123.60;;
23682;SDS011;24897;53.514;10.482;2022-09-09T04:26:59;138.50;;;123.93;;
23682;SDS011;24897;53.514;10.482;2022-09-09T04:29:43;140.63;;;125.67;;
23682;SDS011;24897;53.514;10.482;2022-09-09T04:32:27;134.67;;;120.83;;
23682;SDS011;24897;53.514;10.482;2022-09-09T04:35:11;137.37;;;123.13;;
23682;SDS011;24897;53.514;10.482;2022-09-09T04:37:55;139.83;;;124.53;;
23682;SDS011;24897;53.514;10.482;2022-09-09T04:40:42;135.40;;;121.50;;
23682;SDS011;24897;53.514;10.482;2022-09-09T04:43:26;134.63;;;121.07;;
23682;SDS011;24897;53.514;10.482;2022-09-09T04:46:10;141.70;;;127.43;;
23682;SDS011;24897;53.514;10.482;2022-09-09T04:48:55;135.27;;;121.63;;
23682;SDS011;24897;53.514;10.482;2022-09-09T04:51:39;127.70;;;114.70;;
23682;SDS011;24897;53.514;10.482;2022-09-09T04:54:23;129.70;;;116.40;;
23682;SDS011;24897;53.514;10.482;2022-09-09T04:57:10;132.90;;;113.97;;
23682;SDS011;24897;53.514;10.482;2022-09-09T04:59:54;121.03;;;107.90;;
23682;SDS011;24897;53.514;10.482;2022-09-09T05:02:38;115.07;;;102.80;;
23682;SDS011;24897;53.514;10.482;2022-09-09T05:05:23;114.00;;;102.17;;
23682;SDS011;24897;53.514;10.482;2022-09-09T05:08:09;116.20;;;102.20;;
23682;SDS011;24897;53.514;10.482;2022-09-09T05:10:53;108.63;;;96.97;;
23682;SDS011;24897;53.514;10.482;2022-09-09T05:13:39;103.03;;;91.73;;
23682;SDS011;24897;53.514;10.482;2022-09-09T05:16:23;108.00;;;91.47;;
23682;SDS011;24897;53.514;10.482;2022-09-09T05:19:07;104.37;;;88.00;;
23682;SDS011;24897;53.514;10.482;2022-09-09T05:21:52;94.63;;;84.43;;
23682;SDS011;24897;53.514;10.482;2022-09-09T05:24:37;105.20;;;94.20;;
23682;SDS011;24897;53.514;10.482;2022-09-09T05:27:22;110.43;;;98.50;;
23682;SDS011;24897;53.514;10.482;2022-09-09T05:30:06;117.40;;;104.67;;
23682;SDS011;24897;53.514;10.482;2022-09-09T05:32:51;114.83;;;102.73;;
23682;SDS011;24897;53.514;10.482;2022-09-09T05:35:35;114.97;;;103.07;;
23682;SDS011;24897;53.514;10.482;2022-09-09T05:38:21;111.47;;;99.97;;
23682;SDS011;24897;53.514;10.482;2022-09-09T05:41:09;105.03;;;94.10;;
23682;SDS011;24897;53.514;10.482;2022-09-09T05:43:54;104.00;;;93.00;;
23682;SDS011;24897;53.514;10.482;2022-09-09T05:46:39;94.50;;;84.13;;
23682;SDS011;24897;53.514;10.482;2022-09-09T05:49:23;93.27;;;82.40;;
23682;SDS011;24897;53.514;10.482;2022-09-09T05:52:08;84.23;;;74.93;;
23682;SDS011;24897;53.514;10.482;2022-09-09T05:54:53;80.63;;;70.60;;
23682;SDS011;24897;53.514;10.482;2022-09-09T05:57:38;79.57;;;66.40;;
23682;SDS011;24897;53.514;10.482;2022-09-09T06:00:23;73.77;;;62.03;;
23682;SDS011;24897;53.514;10.482;2022-09-09T06:03:08;69.00;;;59.07;;
23682;SDS011;24897;53.514;10.482;2022-09-09T06:05:58;68.20;;;58.97;;
23682;SDS011;24897;53.514;10.482;2022-09-09T06:08:44;70.17;;;54.17;;
23682;SDS011;24897;53.514;10.482;2022-09-09T06:11:29;61.87;;;51.83;;
23682;SDS011;24897;53.514;10.482;2022-09-09T06:14:19;62.97;;;50.83;;
23682;SDS011;24897;53.514;10.482;2022-09-09T06:17:04;58.23;;;48.73;;
23682;SDS011;24897;53.514;10.482;2022-09-09T06:19:48;53.43;;;43.73;;
23682;SDS011;24897;53.514;10.482;2022-09-09T06:22:32;57.33;;;46.00;;
23682;SDS011;24897;53.514;10.482;2022-09-09T06:25:17;56.87;;;45.53;;
23682;SDS011;24897;53.514;10.482;2022-09-09T06:28:02;57.57;;;45.83;;
23682;SDS011;24897;53.514;10.482;2022-09-09T06:30:46;56.40;;;45.53;;
23682;SDS011;24897;53.514;10.482;2022-09-09T06:33:31;51.97;;;43.60;;
23682;SDS011;24897;53.514;10.482;2022-09-09T06:36:28;52.97;;;43.17;;
23682;SDS011;24897;53.514;10.482;2022-09-09T06:39:15;48.13;;;40.67;;
23682;SDS011;24897;53.514;10.482;2022-09-09T06:41:59;47.00;;;41.43;;
23682;SDS011;24897;53.514;10.482;2022-09-09T06:44:43;43.67;;;38.97;;
23682;SDS011;24897;53.514;10.482;2022-09-09T06:47:28;43.87;;;38.53;;
23682;SDS011;24897;53.514;10.482;2022-09-09T06:50:12;42.27;;;37.57;;
23682;SDS011;24897;53.514;10.482;2022-09-09T06:52:58;43.20;;;38.40;;
23682;SDS011;24897;53.514;10.482;2022-09-09T06:55:42;44.30;;;39.53;;
23682;SDS011;24897;53.514;10.482;2022-09-09T06:58:28;47.77;;;38.73;;
23682;SDS011;24897;53.514;10.482;2022-09-09T07:01:13;45.67;;;40.57;;
23682;SDS011;24897;53.514;10.482;2022-09-09T07:04:05;46.93;;;41.83;;
23682;SDS011;24897;53.514;10.482;2022-09-09T07:06:51;47.37;;;40.93;;
23682;SDS011;24897;53.514;10.482;2022-09-09T07:09:36;88.83;;;68.43;;
23682;SDS011;24897;53.514;10.482;2022-09-09T07:12:21;50.57;;;45.07;;
23682;SDS011;24897;53.514;10.482;2022-09-09T07:15:05;51.37;;;43.57;;
23682;SDS011;24897;53.514;10.482;2022-09-09T07:17:50;53.03;;;45.17;;
23682;SDS011;24897;53.514;10.482;2022-09-09T07:20:35;50.63;;;45.03;;
23682;SDS011;24897;53.514;10.482;2022-09-09T07:23:19;49.83;;;43.07;;
23682;SDS011;24897;53.514;10.482;2022-09-09T07:26:08;50.10;;;44.60;;
23682;SDS011;24897;53.514;10.482;2022-09-09T07:28:57;50.70;;;44.83;;
23682;SDS011;24897;53.514;10.482;2022-09-09T07:31:41;49.13;;;42.67;;
23682;SDS011;24897;53.514;10.482;2022-09-09T07:34:25;48.23;;;42.83;;
23682;SDS011;24897;53.514;10.482;2022-09-09T07:37:09;48.00;;;42.80;;
23682;SDS011;24897;53.514;10.482;2022-09-09T07:39:55;48.60;;;43.30;;
23682;SDS011;24897;53.514;10.482;2022-09-09T07:42:39;47.17;;;42.07;;
23682;SDS011;24897;53.514;10.482;2022-09-09T07:45:23;47.13;;;40.73;;
23682;SDS011;24897;53.514;10.482;2022-09-09T07:48:08;45.77;;;40.80;;
23682;SDS011;24897;53.514;10.482;2022-09-09T07:50:52;42.30;;;37.70;;
23682;SDS011;24897;53.514;10.482;2022-09-09T07:53:46;44.33;;;39.53;;
23682;SDS011;24897;53.514;10.482;2022-09-09T07:56:31;44.93;;;40.33;;
23682;SDS011;24897;53.514;10.482;2022-09-09T07:59:16;43.93;;;39.40;;
23682;SDS011;24897;53.514;10.482;2022-09-09T08:02:01;41.30;;;36.93;;
23682;SDS011;24897;53.514;10.482;2022-09-09T08:04:46;38.53;;;34.73;;
23682;SDS011;24897;53.514;10.482;2022-09-09T08:07:31;36.50;;;32.90;;
23682;SDS011;24897;53.514;10.482;2022-09-09T08:10:15;34.47;;;31.10;;
23682;SDS011;24897;53.514;10.482;2022-09-09T08:13:00;35.67;;;32.27;;
23682;SDS011;24897;53.514;10.482;2022-09-09T08:15:44;35.53;;;31.97;;
23682;SDS011;24897;53.514;10.482;2022-09-09T08:18:28;37.33;;;33.63;;
23682;SDS011;24897;53.514;10.482;2022-09-09T08:21:13;42.67;;;38.10;;
23682;SDS011;24897;53.514;10.482;2022-09-09T08:24:01;36.20;;;32.50;;
23682;SDS011;24897;53.514;10.482;2022-09-09T08:26:47;35.90;;;32.10;;
23682;SDS011;24897;53.514;10.482;2022-09-09T08:29:34;35.00;;;31.30;;
23682;SDS011;24897;53.514;10.482;2022-09-09T08:32:19;37.57;;;32.50;;
23682;SDS011;24897;53.514;10.482;2022-09-09T08:35:03;34.20;;;30.60;;
23682;SDS011;24897;53.514;10.482;2022-09-09T08:37:48;34.33;;;30.73;;
23682;SDS011;24897;53.514;10.482;2022-09-09T08:40:32;34.93;;;31.13;;
23682;SDS011;24897;53.514;10.482;2022-09-09T08:43:23;33.87;;;30.37;;
23682;SDS011;24897;53.514;10.482;2022-09-09T08:46:16;33.40;;;29.90;;
23682;SDS011;24897;53.514;10.482;2022-09-09T08:49:19;36.23;;;31.93;;
23682;SDS011;24897;53.514;10.482;2022-09-09T08:55:50;33.67;;;30.27;;
23682;SDS011;24897;53.514;10.482;2022-09-09T08:58:40;34.13;;;30.53;;
23682;SDS011;24897;53.514;10.482;2022-09-09T09:01:41;34.53;;;30.13;;
23682;SDS011;24897;53.514;10.482;2022-09-09T09:10:50;32.50;;;29.10;;
23682;SDS011;24897;53.514;10.482;2022-09-09T09:13:45;32.73;;;29.43;;
23682;SDS011;24897;53.514;10.482;2022-09-09T09:16:38;31.80;;;28.50;;
23682;SDS011;24897;53.514;10.482;2022-09-09T09:19:29;31.13;;;28.13;;
23682;SDS011;24897;53.514;10.482;2022-09-09T09:22:21;41.30;;;36.90;;
23682;SDS011;24897;53.514;10.482;2022-09-09T09:25:18;31.63;;;28.43;;
23682;SDS011;24897;53.514;10.482;2022-09-09T09:28:24;30.70;;;27.77;;
23682;SDS011;24897;53.514;10.482;2022-09-09T09:31:10;30.57;;;27.67;;
23682;SDS011;24897;53.514;10.482;2022-09-09T09:33:57;29.23;;;26.43;;
23682;SDS011;24897;53.514;10.482;2022-09-09T09:36:46;25.63;;;23.53;;
23682;SDS011;24897;53.514;10.482;2022-09-09T09:39:37;25.07;;;22.87;;
23682;SDS011;24897;53.514;10.482;2022-09-09T09:42:23;23.93;;;21.87;;
23682;SDS011;24897;53.514;10.482;2022-09-09T09:45:14;22.37;;;20.50;;
23682;SDS011;24897;53.514;10.482;2022-09-09T09:48:26;22.77;;;20.87;;
23682;SDS011;24897;53.514;10.482;2022-09-09T09:51:13;21.37;;;19.67;;
23682;SDS011;24897;53.514;10.482;2022-09-09T09:54:14;19.60;;;17.80;;
23682;SDS011;24897;53.514;10.482;2022-09-09T09:57:09;19.60;;;17.73;;
23682;SDS011;24897;53.514;10.482;2022-09-09T10:03:02;20.20;;;18.50;;
23682;SDS011;24897;53.514;10.482;2022-09-09T10:06:04;21.13;;;19.33;;
23682;SDS011;24897;53.514;10.482;2022-09-09T10:08:49;20.07;;;18.30;;
23682;SDS011;24897;53.514;10.482;2022-09-09T10:21:24;18.53;;;16.97;;
23682;SDS011;24897;53.514;10.482;2022-09-09T10:27:20;19.37;;;17.77;;
23682;SDS011;24897;53.514;10.482;2022-09-09T10:30:19;20.57;;;18.87;;
23682;SDS011;24897;53.514;10.482;2022-09-09T10:36:25;19.00;;;17.40;;
23682;SDS011;24897;53.514;10.482;2022-09-09T10:42:14;19.07;;;17.37;;
23682;SDS011;24897;53.514;10.482;2022-09-09T10:48:09;18.27;;;16.77;;
23682;SDS011;24897;53.514;10.482;2022-09-09T10:51:18;19.23;;;17.63;;
23682;SDS011;24897;53.514;10.482;2022-09-09T10:54:17;19.33;;;17.60;;
23682;SDS011;24897;53.514;10.482;2022-09-09T10:57:28;19.97;;;18.30;;
23682;SDS011;24897;53.514;10.482;2022-09-09T11:00:30;20.60;;;18.90;;
23682;SDS011;24897;53.514;10.482;2022-09-09T11:03:22;20.50;;;18.60;;
23682;SDS011;24897;53.514;10.482;2022-09-09T11:06:12;19.90;;;18.20;;
23682;SDS011;24897;53.514;10.482;2022-09-09T11:09:02;19.90;;;18.20;;
23682;SDS011;24897;53.514;10.482;2022-09-09T11:11:58;19.70;;;18.10;;
23682;SDS011;24897;53.514;10.482;2022-09-09T11:15:05;22.60;;;20.40;;
23682;SDS011;24897;53.514;10.482;2022-09-09T11:17:58;19.10;;;17.60;;
23682;SDS011;24897;53.514;10.482;2022-09-09T11:20:52;18.70;;;17.13;;
23682;SDS011;24897;53.514;10.482;2022-09-09T11:23:44;17.98;;;16.35;;
23682;SDS011;24897;53.514;10.482;2022-09-09T11:26:41;17.40;;;15.90;;
23682;SDS011;24897;53.514;10.482;2022-09-09T11:42:22;18.45;;;17.05;;
23682;SDS011;24897;53.514;10.482;2022-09-09T11:45:26;17.90;;;16.50;;
23682;SDS011;24897;53.514;10.482;2022-09-09T11:51:30;18.08;;;16.77;;
23682;SDS011;24897;53.514;10.482;2022-09-09T11:57:17;18.02;;;16.55;;
23682;SDS011;24897;53.514;10.482;2022-09-09T12:00:27;17.70;;;16.30;;
23682;SDS011;24897;53.514;10.482;2022-09-09T12:06:55;17.08;;;15.68;;
23682;SDS011;24897;53.514;10.482;2022-09-09T12:09:45;17.98;;;16.48;;
23682;SDS011;24897;53.514;10.482;2022-09-09T12:12:37;18.75;;;17.10;;
23682;SDS011;24897;53.514;10.482;2022-09-09T12:15:23;18.50;;;17.00;;
23682;SDS011;24897;53.514;10.482;2022-09-09T12:18:14;19.30;;;17.70;;
23682;SDS011;24897;53.514;10.482;2022-09-09T12:21:07;20.03;;;18.33;;
23682;SDS011;24897;53.514;10.482;2022-09-09T12:24:37;21.27;;;19.30;;
23682;SDS011;24897;53.514;10.482;2022-09-09T12:27:31;21.53;;;19.57;;
23682;SDS011;24897;53.514;10.482;2022-09-09T12:30:20;28.97;;;26.37;;
23682;SDS011;24897;53.514;10.482;2022-09-09T12:33:11;31.33;;;28.63;;
23682;SDS011;24897;53.514;10.482;2022-09-09T12:35:57;27.20;;;24.60;;
23682;SDS011;24897;53.514;10.482;2022-09-09T12:38:43;37.97;;;34.63;;
23682;SDS011;24897;53.514;10.482;2022-09-09T12:41:28;41.53;;;38.07;;
23682;SDS011;24897;53.514;10.482;2022-09-09T12:44:12;43.03;;;39.33;;
23682;SDS011;24897;53.514;10.482;2022-09-09T12:47:00;38.27;;;35.07;;
23682;SDS011;24897;53.514;10.482;2022-09-09T12:49:47;38.03;;;34.57;;
23682;SDS011;24897;53.514;10.482;2022-09-09T12:52:34;40.23;;;36.73;;
23682;SDS011;24897;53.514;10.482;2022-09-09T12:55:21;42.63;;;38.63;;
23682;SDS011;24897;53.514;10.482;2022-09-09T12:58:11;45.77;;;41.70;;
23682;SDS011;24897;53.514;10.482;2022-09-09T13:01:00;53.83;;;48.93;;
23682;SDS011;24897;53.514;10.482;2022-09-09T13:03:48;52.80;;;47.90;;
23682;SDS011;24897;53.514;10.482;2022-09-09T13:06:33;37.87;;;34.20;;
23682;SDS011;24897;53.514;10.482;2022-09-09T13:09:18;35.23;;;31.83;;
23682;SDS011;24897;53.514;10.482;2022-09-09T13:12:03;36.97;;;33.67;;
23682;SDS011;24897;53.514;10.482;2022-09-09T13:14:52;41.73;;;38.13;;
23682;SDS011;24897;53.514;10.482;2022-09-09T13:17:39;42.83;;;39.43;;
23682;SDS011;24897;53.514;10.482;2022-09-09T13:20:24;40.23;;;36.93;;
23682;SDS011;24897;53.514;10.482;2022-09-09T13:23:09;38.87;;;35.47;;
23682;SDS011;24897;53.514;10.482;2022-09-09T13:25:56;47.83;;;43.27;;
23682;SDS011;24897;53.514;10.482;2022-09-09T13:28:43;35.00;;;31.90;;
23682;SDS011;24897;53.514;10.482;2022-09-09T13:31:30;30.27;;;27.57;;
23682;SDS011;24897;53.514;10.482;2022-09-09T13:37:19;29.93;;;27.33;;
23682;SDS011;24897;53.514;10.482;2022-09-09T13:40:22;29.77;;;27.23;;
23682;SDS011;24897;53.514;10.482;2022-09-09T13:43:13;30.63;;;28.00;;
23682;SDS011;24897;53.514;10.482;2022-09-09T13:46:06;30.27;;;27.67;;
23682;SDS011;24897;53.514;10.482;2022-09-09T13:54:50;33.43;;;30.53;;
23682;SDS011;24897;53.514;10.482;2022-09-09T13:57:35;32.87;;;29.97;;
23682;SDS011;24897;53.514;10.482;2022-09-09T14:00:19;32.33;;;29.47;;
23682;SDS011;24897;53.514;10.482;2022-09-09T14:03:04;34.23;;;31.23;;
23682;SDS011;24897;53.514;10.482;2022-09-09T14:05:48;31.70;;;29.00;;
23682;SDS011;24897;53.514;10.482;2022-09-09T14:08:32;30.70;;;28.17;;
23682;SDS011;24897;53.514;10.482;2022-09-09T14:11:21;28.40;;;26.03;;
23682;SDS011;24897;53.514;10.482;2022-09-09T14:14:05;29.60;;;26.90;;
23682;SDS011;24897;53.514;10.482;2022-09-09T14:16:50;25.77;;;23.57;;
23682;SDS011;24897;53.514;10.482;2022-09-09T14:19:33;27.30;;;25.00;;
23682;SDS011;24897;53.514;10.482;2022-09-09T14:22:18;27.73;;;25.43;;
23682;SDS011;24897;53.514;10.482;2022-09-09T14:25:02;24.83;;;22.73;;
23682;SDS011;24897;53.514;10.482;2022-09-09T14:27:47;27.10;;;24.90;;
23682;SDS011;24897;53.514;10.482;2022-09-09T14:30:32;27.00;;;24.80;;
23682;SDS011;24897;53.514;10.482;2022-09-09T14:33:17;28.00;;;25.60;;
23682;SDS011;24897;53.514;10.482;2022-09-09T14:36:02;27.77;;;25.47;;
23682;SDS011;24897;53.514;10.482;2022-09-09T14:38:47;29.50;;;27.03;;
23682;SDS011;24897;53.514;10.482;2022-09-09T14:41:32;30.10;;;27.50;;
23682;SDS011;24897;53.514;10.482;2022-09-09T14:44:16;29.90;;;27.30;;
23682;SDS011;24897;53.514;10.482;2022-09-09T14:46:59;28.60;;;26.00;;
23682;SDS011;24897;53.514;10.482;2022-09-09T14:49:44;32.80;;;29.73;;
23682;SDS011;24897;53.514;10.482;2022-09-09T14:52:29;34.63;;;31.17;;
23682;SDS011;24897;53.514;10.482;2022-09-09T14:55:14;63.90;;;58.17;;
23682;SDS011;24897;53.514;10.482;2022-09-09T14:57:59;83.30;;;76.20;;
23682;SDS011;24897;53.514;10.482;2022-09-09T15:00:43;212.80;;;197.33;;
23682;SDS011;24897;53.514;10.482;2022-09-09T15:03:27;197.03;;;181.90;;
23682;SDS011;24897;53.514;10.482;2022-09-09T15:06:12;167.30;;;153.83;;
23682;SDS011;24897;53.514;10.482;2022-09-09T15:08:58;200.73;;;185.00;;
23682;SDS011;24897;53.514;10.482;2022-09-09T15:11:43;205.93;;;189.77;;
23682;SDS011;24897;53.514;10.482;2022-09-09T15:14:28;187.00;;;171.97;;
23682;SDS011;24897;53.514;10.482;2022-09-09T15:17:12;175.13;;;160.43;;
23682;SDS011;24897;53.514;10.482;2022-09-09T15:19:56;175.60;;;160.90;;
23682;SDS011;24897;53.514;10.482;2022-09-09T15:22:41;178.30;;;163.37;;
23682;SDS011;24897;53.514;10.482;2022-09-09T15:25:25;162.83;;;149.23;;
23682;SDS011;24897;53.514;10.482;2022-09-09T15:28:10;136.30;;;124.63;;
23682;SDS011;24897;53.514;10.482;2022-09-09T15:30:54;113.70;;;103.90;;
23682;SDS011;24897;53.514;10.482;2022-09-09T15:33:40;109.97;;;100.27;;
23682;SDS011;24897;53.514;10.482;2022-09-09T15:36:25;101.60;;;92.60;;
23682;SDS011;24897;53.514;10.482;2022-09-09T15:39:13;102.73;;;93.60;;
23682;SDS011;24897;53.514;10.482;2022-09-09T15:42:01;95.20;;;86.50;;
23682;SDS011;24897;53.514;10.482;2022-09-09T15:44:46;88.50;;;80.33;;
23682;SDS011;24897;53.514;10.482;2022-09-09T15:47:30;83.23;;;75.40;;
23682;SDS011;24897;53.514;10.482;2022-09-09T15:50:14;68.83;;;61.93;;
23682;SDS011;24897;53.514;10.482;2022-09-09T15:52:59;57.37;;;50.93;;
23682;SDS011;24897;53.514;10.482;2022-09-09T15:55:43;55.57;;;49.37;;
23682;SDS011;24897;53.514;10.482;2022-09-09T15:58:30;52.30;;;43.77;;
23682;SDS011;24897;53.514;10.482;2022-09-09T16:01:15;51.17;;;43.60;;
23682;SDS011;24897;53.514;10.482;2022-09-09T16:04:00;52.57;;;40.40;;
23682;SDS011;24897;53.514;10.482;2022-09-09T16:06:44;48.63;;;41.97;;
23682;SDS011;24897;53.514;10.482;2022-09-09T16:09:29;43.67;;;38.10;;
23682;SDS011;24897;53.514;10.482;2022-09-09T16:12:14;46.37;;;36.10;;
23682;SDS011;24897;53.514;10.482;2022-09-09T16:14:58;43.97;;;37.43;;
23682;SDS011;24897;53.514;10.482;2022-09-09T16:17:43;43.50;;;37.33;;
23682;SDS011;24897;53.514;10.482;2022-09-09T16:20:28;41.60;;;35.97;;
23682;SDS011;24897;53.514;10.482;2022-09-09T16:23:13;41.27;;;36.63;;
23682;SDS011;24897;53.514;10.482;2022-09-09T16:25:57;40.90;;;35.90;;
23682;SDS011;24897;53.514;10.482;2022-09-09T16:28:41;41.10;;;36.43;;
23682;SDS011;24897;53.514;10.482;2022-09-09T16:31:27;49.97;;;39.17;;
23682;SDS011;24897;53.514;10.482;2022-09-09T16:34:12;46.80;;;39.63;;
23682;SDS011;24897;53.514;10.482;2022-09-09T16:36:57;43.83;;;37.13;;
23682;SDS011;24897;53.514;10.482;2022-09-09T16:39:41;44.27;;;39.13;;
23682;SDS011;24897;53.514;10.482;2022-09-09T16:42:26;49.23;;;42.60;;
23682;SDS011;24897;53.514;10.482;2022-09-09T16:45:11;47.13;;;39.23;;
23682;SDS011;24897;53.514;10.482;2022-09-09T16:47:56;42.77;;;38.07;;
23682;SDS011;24897;53.514;10.482;2022-09-09T16:50:40;43.77;;;38.83;;
23682;SDS011;24897;53.514;10.482;2022-09-09T16:53:24;44.47;;;39.07;;
23682;SDS011;24897;53.514;10.482;2022-09-09T16:56:10;44.30;;;39.20;;
23682;SDS011;24897;53.514;10.482;2022-09-09T16:58:57;46.53;;;41.63;;
23682;SDS011;24897;53.514;10.482;2022-09-09T17:01:43;47.00;;;42.07;;
23682;SDS011;24897;53.514;10.482;2022-09-09T17:04:29;46.90;;;42.00;;
23682;SDS011;24897;53.514;10.482;2022-09-09T17:07:14;48.70;;;43.40;;
23682;SDS011;24897;53.514;10.482;2022-09-09T17:09:58;49.60;;;44.50;;
23682;SDS011;24897;53.514;10.482;2022-09-09T17:12:42;46.43;;;41.53;;
23682;SDS011;24897;53.514;10.482;2022-09-09T17:15:26;45.47;;;40.53;;
23682;SDS011;24897;53.514;10.482;2022-09-09T17:18:11;46.70;;;41.80;;
23682;SDS011;24897;53.514;10.482;2022-09-09T17:21:01;45.13;;;40.20;;
23682;SDS011;24897;53.514;10.482;2022-09-09T17:23:50;45.87;;;40.80;;
23682;SDS011;24897;53.514;10.482;2022-09-09T17:26:36;47.93;;;40.53;;
23682;SDS011;24897;53.514;10.482;2022-09-09T17:29:21;47.27;;;41.23;;
23682;SDS011;24897;53.514;10.482;2022-09-09T17:32:05;46.10;;;41.10;;
23682;SDS011;24897;53.514;10.482;2022-09-09T17:34:50;44.70;;;39.80;;
23682;SDS011;24897;53.514;10.482;2022-09-09T17:37:36;43.30;;;38.67;;
23682;SDS011;24897;53.514;10.482;2022-09-09T17:40:20;44.23;;;38.33;;
23682;SDS011;24897;53.514;10.482;2022-09-09T17:43:05;44.83;;;40.20;;
23682;SDS011;24897;53.514;10.482;2022-09-09T17:45:49;45.57;;;40.83;;
23682;SDS011;24897;53.514;10.482;2022-09-09T17:48:33;46.07;;;41.07;;
23682;SDS011;24897;53.514;10.482;2022-09-09T17:51:20;47.57;;;42.57;;
23682;SDS011;24897;53.514;10.482;2022-09-09T17:54:10;45.23;;;40.23;;
23682;SDS011;24897;53.514;10.482;2022-09-09T17:56:57;47.03;;;42.03;;
23682;SDS011;24897;53.514;10.482;2022-09-09T17:59:43;44.13;;;39.33;;
23682;SDS011;24897;53.514;10.482;2022-09-09T18:02:27;43.40;;;38.47;;
23682;SDS011;24897;53.514;10.482;2022-09-09T18:05:11;43.17;;;38.30;;